Local Weather Ingen bokad jour idag Monday 17th of December
Flygplats METAR TAF
Airport METAR TAF
ESSL - Linköping171520Z 21004KT 9999 OVC021 M01/M02 Q1021 RWY 29 DAMP 51-100 PCT BA GOOD= 171430Z 1715/1723 21005KT 9999 BKN020=
ESSP - Norrköping171520Z 20006KT 9999 BKN024 M01/M01 Q1021 RWY 27 ICE 26-50 PCT 1 MM FCT 0.38= 171430Z 1715/1723 22003KT 9999 BKN025=
ESGJ - Jönköping171520Z 18003KT 9000 -SN BKN006 M02/M03 Q1020= 171430Z 1715/1724 18004KT 9999 BKN006 PROB40 1715/1716 SCT010 BECMG 1716/1718 SCT015 PROB40 1720/1724 BKN007=
ESKN - Skavsta171520Z 23003KT 9999 BKN027 M01/M01 Q1021 RWY 26 SLUSH 26-50 PCT 1 MM FCT 0.65= 171130Z 1712/1812 20003KT 9999 BKN006 BECMG 1712/1714 BKN020 TEMPO 1714/1718 BKN006 PROB40 1802/1810 0600 FZFG VV002=
ESSV - Visby171520Z 15003KT 9999 BKN013 M01/M02 Q1022 RWY 21 ICE 0-10 PCT FCT 0.65= 171430Z 1715/1723 26006KT 9999 BKN016 PROB40 1715/1723 4000 -SN BKN005=
ESGG - Göteborg171520Z 15003KT 5000 BR FEW019 BKN025 M01/M02 Q1020 RWY 21 WET OR WATER PATCHES 51-100 PCT LESS THAN 1 MM BA GOOD= AAA 171134Z 1712/1812 13004KT 1400 BR VV003 BECMG 1712/1714 9999 NSW BKN025 PROB40 1721/1808 0300 FZFG VV002 PROB40 1808/1812 BKN004=
FLEET STATUS
Flygplan Tid till service Tid till flygstopp Flygtid Landningar
Aircraft Time to service Time to stop Total time Landings
SE-FCEN/AN/A4 903.1 h386 st.
SE-IUD7.0 h17.0 h11 393.0 h22 682 st.
SE-KIT18.1 h23.1 h11 731.9 h22 476 st.
SE-KMH6.3 h16.3 h15 793.7 h59 229 st.
SE-LRLN/AN/A552.4 h952 st.
SE-MEB26.6 h31.6 h1 323.4 h3 998 st.
SE-SIMN/AN/A1 192.2 h85 st.
PPR
Ankomst Avgång Flygplan Namn Bränsle
Arrival Departure Aircraft Name Fuel
13/10 16:0031/12 12:00D-ESFLJonas LövgrenInget
NOTAM
ESSL/LINKOPING/SAAB
<<< CONTINUES ON NEXT PAGE ISSUED: 17 DEC 2018 15:25 UTC PAGE: 6(15) + (SNOWTAM 0163 A)ESSL B)12170932 C)11 F)1/1/1 G)XX/XX/XX H)5/5/5 N)7/4 R)7/4 T)B)12160500 C)29 F)4/4/4 G)1/1/1 H)5/5/5 N)4 , SFH BA 63/65/57 RWY 100 PERCENT DAMP TWY/APRON 5 PERCENT ICE) REPORTED: 17 DEC 2018 09:32 - AERODROME CONTROL TOWER (TWR) HOURS OF OPS/SERVICE MON-FRI 0445-2200, SAT 0445-0545 1000-1115 1715-1815, SUN 0445-0545 1000-1115 1545-1700 2100-2200 FROM: 29 OCT 2018 00:00 TO: 23 DEC 2018 23:59 ES/B3436/18 - ATTENTION UNMANNED AIRCRAFT. ADDITION TO REGULATION TSFS 2017 110. THE LIMITATIONS IN REGULATION TSFS 2017 110 CHAPTER 3 PARAGRPH 3 APPLIES EVEN THOUGH THE AIRPORT IS CLOSED AND SAAB AND MALMEN CTR ARE NOT ESTABLISHED. FROM: 26 OCT 2018 11:03 TO: 25 JAN 2019 09:30 EST ES/B3682/18 >>>
ESCF/LINKOPING/MALMEN
17 15:33:01 UTC 2018 FLIGHT PLANNING CENTRE AERONAUTICAL INFORMATION SERVICE PIB: AREA SERVICE TYPE: FULL PAGE: 1(15) VALIDITY (UTC): 17 DEC 2018 15:25 - 18 DEC 2018 19:54 IDENTIFIER: WWWESAAIFR ISSUED: 17 DEC 2018 15:25 UTC FLIGHT RULES: IFR HEIGHT LIMITS (LOWER/UPPER):000/999 CONTENTS: AERODROMES, EN-ROUTE, WARNINGS MESSAGETYPE: NOTAM INT, SNOWTAM, ASHTAM AERODROMES: ESOH ESMT ESUT ESGJ ESMQ ESOK ESNQ ESNK ESMK ESNX ESSD ESSU ESNG ESGG ESSL ESPA ESMS ESSP ESUP ESDF ESNS ESGR ESSA ESSB ESKN ESOW ESNN ESND ESIB ESST ESGT ESNU ESCM ESNV ESSV ESMX ESNZ ESTA ESOE ESNO FIR: ESAA LEGEND: PERM NOTAM are excluded after 90 days. + MESSAGE NOT OLDER THAN 3 DAYS - MESSAGE OLDER THAN 3 DAYS >>>> ESAA/SWEDEN FIR <<<< AERODROMES >>> ESOH/HAGFORS <<< - TRIGGER NOTAM - PERM AIRAC AIP AMDT 7/18 WEF 6 DEC 2018. RWY REF CODE, STRIP DIMENSION, OPERATIONAL HOURS AND GRANTED EXEMPTIONS. FROM: 06 DEC 2018 00:00 TO: 20 DEC 2018 23:59 ES/C1363/18 >>> ESMT/HALMSTAD <<< + (SNOWTAM 0168 A)ESMT B)12171101 C)01 F)74/74/74 G)1/1/1 H)5/5/5 N)7/MEDIUMGOOD R)7/MEDIUM GOOD T)RWY CONTAMINATION 25 PERCENT. IFROZEN RUTS, ICE RWY01 BA 69 66 64) REPORTED: 17 DEC 2018 11:01 + AERODROME CONTROL TOWER (TWR) HOURS OF OPS/SERVICE MON 0525-1810 TUE-WED 0525-2055 THU 0525-2100 FRI 0525-2035 SAT 0710-0740 0955-1115 1350-1425 SUN 1030-1100 1225-1335 1615-2015 FROM: 17 DEC 2018 11:50 TO: 23 DEC 2018 23:59 ES/B4248/18 - PAPI (3.25 DEG) NOT ALIGNED WITH RNP RWY 01. REF AD 2 ESMT 5-5 FROM: 12 DEC 2018 11:48 TO: PERM ES/B4196/18 - GRASS STRIP RWY 06/24 CLOSED FROM: 07 DEC 2018 13:44 TO: 07 MAR 2019 12:00 EST ES/B4145/18 CONTINUES ON NEXT PAGE ISSUED: 17 DEC 2018 15:25 UTC PAGE: 2(15) - A/G FACILITY LIMITED ONLY 8,33 KHZ RADIO IS ALLOWED FROM: 08 NOV 2018 00:00 TO: 08 FEB 2019 10:00 EST ES/B3740/18 >>> ESUT/HEMAVAN TARNABY <<< + (SNOWTAM 0163 A)ESUT B)12171502 C)15 F)4/4/4 G)01/01/01 H)4/4/5 N)4/MEDIUM R)4/MEDIUM-POOR T)TAXI WITH CAUTION. TWY CONTAMINATION 01MM. APRON CONTAMINATION 05MM.) REPORTED: 17 DEC 2018 15:02 - AFIS HOURS OF OPS/SERVICE MON-FRI 0430-0515 0945-1050 1445-1545 1945-2055, SAT CLSD, SUN 1320-1415 1700-1815 FROM: 14 DEC 2018 00:00 TO: 23 DEC 2018 23:59 ES/C1538/18 - TRIGGER NOTAM - PERM AIRAC AIP AMDT 7/18 WEF 6 DEC 2018. RWY 15/33 STRIP DIMENSIONS. FROM: 06 DEC 2018 00:00 TO: 20 DEC 2018 23:59 ES/C1364/18 >>> ESGJ/JONKOPING <<< + AERODROME HOURS OF OPS/SERVICE MON-FRI 0515-2030, SAT 0600-1230 1845-2030, SUN 1215-2030 FROM: 17 DEC 2018 00:00 TO: 23 DEC 2018 23:59 ES/B4216/18 + AERODROME CONTROL TOWER (TWR) HOURS OF OPS/SERVICE MON 0515-2359, TUE-THU 0000-0130 0515-2359, FRI 0000-0130 0515-2030, SAT 0600-1230 1845-2030, SUN 1215-2030 FROM: 17 DEC 2018 00:00 TO: 23 DEC 2018 23:59 ES/B4217/18 + RWY 01/19 WIP. PPR REQUIRED, REGULAR TFC NOT AFFECTED. SCHEDULE: 0700-1430 FROM: 17 DEC 2018 07:00 TO: 19 DEC 2018 14:30 ES/B4234/18 >>> ESMQ/KALMAR <<< + (SNOWTAM 0895 A)ESMQ B)12171125 C)16 E)35 F)1/1/1 G)XX/XX/XX H)5/5/5 N)7/POOR R)7/POOR T)UREA SPREAD. BA POOR ON TWYS, APRON AND RWY EXTENSION. RWY 05/23 NOT CLEARED.) REPORTED: 17 DEC 2018 11:25 + AERODROME CONTROL TOWER (TWR) HOURS OF OPS/SERVICE MON-WED 0500-2120, THU 0500-2105, FRI 0500-2120, SAT 0630-1435 1600-2105, SUN 0615-2000 FROM: 17 DEC 2018 00:00 TO: 23 DEC 2018 23:59 ES/B4044/18 - ILS OM RWY 16 OUT OF SERVICE FROM: 14 DEC 2018 14:04 TO: 17 DEC 2018 16:00 EST ES/B4236/18 >>>